Bataipora, Brazil
Current Conditions -  °F | °C
As of 4:00 PM on Friday 28 Nov 2014 (Local Time) from SBMG Reporting Station
Scattered Clouds Scattered Clouds  
Wind Chill: 88°   Ceiling: Unl
Heat Index: 90°   Visibility: 6mi
Dew Point: 66°   Wind: 7mph
Humidity: 49%   Direction: 110°ESE
Pressure: 29.88"   Gusts: NA
Location:  22.3°S, 53.27°W
Report Text: SBMG 281900Z 11006KT 9999 SCT045 31/19 Q1012
Loading
Personal Weather Stations






























Interactive Weather Map New forecast layout! Learn more

10-Day Weather Forecast

Advertisements
Track Severe Weather on mobile